createdAt,value
2018-12-07T00:00:33.686Z,24.72
2018-12-07T00:01:33.607Z,24.71
2018-12-07T00:02:33.488Z,24.80
2018-12-07T00:03:33.389Z,25.18
2018-12-07T00:04:33.291Z,25.46
2018-12-07T00:05:33.197Z,25.29
2018-12-07T00:06:33.117Z,25.46
2018-12-07T00:07:33.004Z,25.75
2018-12-07T00:08:32.901Z,25.65
2018-12-07T00:09:32.811Z,25.65
2018-12-07T00:10:32.705Z,25.65
2018-12-07T00:11:32.732Z,25.56
2018-12-07T00:12:32.510Z,26.13
2018-12-07T00:13:32.415Z,26.32
2018-12-07T00:14:32.322Z,26.42
2018-12-07T00:15:32.221Z,26.32
2018-12-07T00:16:32.137Z,26.70
2018-12-07T00:17:32.029Z,26.61
2018-12-07T00:18:31.927Z,27.37
2018-12-07T00:19:31.831Z,27.46
2018-12-07T00:20:31.730Z,27.75
2018-12-07T00:21:31.652Z,27.65
2018-12-07T00:22:31.535Z,28.31
2018-12-07T00:23:31.442Z,28.89
2018-12-07T00:24:31.340Z,29.36
2018-12-07T00:25:31.348Z,29.63
2018-12-07T00:26:31.149Z,30.03
2018-12-07T00:27:31.067Z,29.93
2018-12-07T00:28:30.954Z,28.60
2018-12-07T00:29:30.860Z,27.56
2018-12-07T00:30:30.757Z,26.98
2018-12-07T00:31:30.668Z,25.48
2018-12-07T00:32:30.685Z,25.76
2018-12-07T00:33:30.465Z,25.67
2018-12-07T00:34:30.415Z,25.57
2018-12-07T00:35:30.271Z,26.34
2018-12-07T00:36:30.175Z,26.24
2018-12-07T00:37:30.094Z,25.86
2018-12-07T00:38:29.977Z,26.34
2018-12-07T00:39:30.007Z,27.00
2018-12-07T00:40:29.783Z,26.90
2018-12-07T00:41:29.689Z,26.81
2018-12-07T00:42:29.610Z,26.90
2018-12-07T00:43:29.491Z,27.67
2018-12-07T00:44:29.394Z,27.38
2018-12-07T00:45:29.295Z,27.09
2018-12-07T00:46:29.301Z,27.67
2018-12-07T00:47:29.120Z,27.57
2018-12-07T00:48:29.003Z,27.95
2018-12-07T00:49:28.906Z,28.05
2018-12-07T00:50:28.809Z,27.76
2018-12-07T00:51:28.712Z,28.05
2018-12-07T00:52:28.720Z,27.67
2018-12-07T00:53:28.619Z,28.42
2018-12-07T00:54:28.419Z,28.60
2018-12-07T00:55:28.323Z,28.33
2018-12-07T00:56:28.226Z,27.86
2018-12-07T00:57:28.144Z,27.38
2018-12-07T00:58:28.029Z,27.48
2018-12-07T00:59:27.934Z,27.95
2018-12-07T01:00:27.940Z,27.86
2018-12-07T01:01:27.750Z,27.48
2018-12-07T01:02:27.657Z,27.28
2018-12-07T01:03:27.555Z,27.48
2018-12-07T01:04:27.446Z,26.72
2018-12-07T01:05:27.352Z,26.62
2018-12-07T01:06:27.253Z,26.62
2018-12-07T01:07:27.283Z,26.05
2018-12-07T01:08:27.058Z,25.76
2018-12-07T01:09:26.959Z,26.43
2018-12-07T01:10:26.862Z,26.05
2018-12-07T01:11:26.767Z,26.43
2018-12-07T01:12:26.688Z,26.43
2018-12-07T01:13:26.572Z,26.34
2018-12-07T01:14:26.585Z,26.14
2018-12-07T01:15:26.377Z,25.95
2018-12-07T01:16:26.292Z,25.40
2018-12-07T01:17:26.200Z,25.57
2018-12-07T01:18:26.086Z,25.49
2018-12-07T01:19:25.993Z,26.14
2018-12-07T01:20:25.891Z,25.86
2018-12-07T01:21:25.903Z,25.86
2018-12-07T01:22:25.717Z,26.53
2018-12-07T01:23:25.600Z,26.24
2018-12-07T01:24:25.502Z,26.35
2018-12-07T01:25:25.405Z,25.96
2018-12-07T01:26:25.308Z,26.34
2018-12-07T01:27:25.228Z,26.25
2018-12-07T01:28:25.233Z,26.16
2018-12-07T01:29:25.017Z,26.16
2018-12-07T01:30:24.920Z,26.16
2018-12-07T01:31:24.825Z,26.35
2018-12-07T01:32:24.745Z,26.35
2018-12-07T01:33:24.628Z,26.35
2018-12-07T01:34:24.533Z,26.35
2018-12-07T01:35:24.540Z,26.06
2018-12-07T01:36:24.339Z,25.96
2018-12-07T01:37:24.265Z,25.96
2018-12-07T01:38:24.145Z,26.06
2018-12-07T01:39:24.051Z,26.35
2018-12-07T01:40:23.954Z,26.25
2018-12-07T01:41:23.858Z,26.44
2018-12-07T01:42:23.773Z,26.25
2018-12-07T01:43:23.657Z,26.54
2018-12-07T01:44:23.562Z,26.25
2018-12-07T01:45:23.464Z,26.44
2018-12-07T01:46:23.367Z,26.73
2018-12-07T01:47:23.318Z,27.01
2018-12-07T01:48:23.174Z,27.39
2018-12-07T01:49:23.183Z,27.68
2018-12-07T01:50:22.979Z,27.68
2018-12-07T01:51:22.881Z,27.30
2018-12-07T01:52:22.803Z,27.58
2018-12-07T01:53:22.689Z,27.30
2018-12-07T01:54:22.592Z,27.68
2018-12-07T01:55:22.494Z,27.58
2018-12-07T01:56:22.396Z,27.87
2018-12-07T01:57:22.318Z,27.49
2018-12-07T01:58:22.207Z,28.16
2018-12-07T01:59:22.109Z,28.06
2018-12-07T02:00:22.009Z,28.44
2018-12-07T02:01:21.912Z,28.44
2018-12-07T02:02:21.836Z,28.16
2018-12-07T02:03:21.719Z,28.25
2018-12-07T02:04:21.621Z,28.63
2018-12-07T02:05:21.525Z,28.44
2018-12-07T02:06:21.429Z,28.72
2018-12-07T02:07:21.334Z,29.30
2018-12-07T02:08:21.254Z,29.58
2018-12-07T02:09:21.138Z,29.96
2018-12-07T02:10:21.041Z,30.25
2018-12-07T02:11:20.946Z,30.25
2018-12-07T02:12:20.864Z,30.06
2018-12-07T02:13:20.750Z,30.15
2018-12-07T02:14:20.654Z,30.54
2018-12-07T02:15:20.575Z,30.63
2018-12-07T02:16:20.461Z,30.34
2018-12-07T02:17:20.371Z,30.63
2018-12-07T02:18:20.283Z,30.44
2018-12-07T02:19:20.170Z,31.01
2018-12-07T02:20:20.076Z,31.20
2018-12-07T02:21:19.980Z,31.29
2018-12-07T02:22:19.883Z,31.48
2018-12-07T02:23:19.800Z,31.39
2018-12-07T02:24:19.685Z,31.58
2018-12-07T02:25:19.588Z,32.15
2018-12-07T02:26:19.492Z,32.82
2018-12-07T02:27:19.397Z,33.29
2018-12-07T02:28:19.315Z,33.48
2018-12-07T02:29:19.203Z,33.86
2018-12-07T02:30:19.105Z,33.86
2018-12-07T02:31:19.013Z,34.63
2018-12-07T02:32:18.913Z,34.91
2018-12-07T02:33:18.832Z,35.10
2018-12-07T02:34:18.718Z,35.67
2018-12-07T02:35:18.623Z,36.15
2018-12-07T02:36:18.524Z,36.43
2018-12-07T02:37:18.428Z,36.62
2018-12-07T02:38:18.350Z,37.10
2018-12-07T02:39:18.236Z,37.19
2018-12-07T02:40:18.138Z,37.38
2018-12-07T02:41:18.039Z,37.29
2018-12-07T02:42:17.943Z,37.38
2018-12-07T02:43:17.866Z,37.57
2018-12-07T02:44:17.751Z,38.05
2018-12-07T02:45:17.655Z,38.43
2018-12-07T02:46:17.559Z,37.95
2018-12-07T02:47:17.464Z,38.24
2018-12-07T02:48:17.381Z,38.71
2018-12-07T02:49:17.268Z,38.43
2018-12-07T02:50:17.170Z,39.00
2018-12-07T02:51:17.076Z,41.00
2018-12-07T02:52:17.055Z,42.33
2018-12-07T02:53:16.898Z,42.80
2018-12-07T02:54:16.795Z,42.99
2018-12-07T02:55:16.699Z,43.47
2018-12-07T02:56:16.592Z,43.85
2018-12-07T02:57:16.495Z,45.09
2018-12-07T02:58:16.426Z,45.85
2018-12-07T02:59:16.304Z,46.14
2018-12-07T03:00:16.205Z,46.89
2018-12-07T03:01:16.108Z,46.89
2018-12-07T03:02:16.013Z,47.18
2018-12-07T03:03:15.934Z,48.13
2018-12-07T03:04:15.818Z,48.03
2018-12-07T03:05:15.726Z,48.99
2018-12-07T03:06:15.625Z,48.80
2018-12-07T03:07:15.530Z,48.71
2018-12-07T03:08:15.448Z,48.99
2018-12-07T03:09:15.338Z,48.80
2018-12-07T03:10:15.242Z,48.99
2018-12-07T03:11:15.147Z,48.90
2018-12-07T03:12:15.154Z,48.71
2018-12-07T03:13:14.966Z,48.90
2018-12-07T03:14:14.854Z,48.99
2018-12-07T03:15:14.756Z,49.18
2018-12-07T03:16:14.662Z,48.71
2018-12-07T03:17:14.563Z,49.08
2018-12-07T03:18:14.484Z,48.90
2018-12-07T03:19:14.479Z,48.90
2018-12-07T03:20:14.281Z,48.80
2018-12-07T03:21:14.177Z,48.61
2018-12-07T03:22:14.081Z,49.27
2018-12-07T03:23:14.002Z,48.82
2018-12-07T03:24:13.896Z,48.63
2018-12-07T03:25:13.792Z,48.82
2018-12-07T03:26:13.811Z,48.82
2018-12-07T03:27:13.600Z,48.92
2018-12-07T03:28:13.519Z,49.11
2018-12-07T03:29:13.407Z,49.96
2018-12-07T03:30:13.310Z,49.68
2018-12-07T03:31:13.247Z,49.77
2018-12-07T03:32:13.117Z,49.77
2018-12-07T03:33:13.141Z,49.30
2018-12-07T03:34:12.925Z,48.92
2018-12-07T03:35:12.839Z,49.20
2018-12-07T03:36:12.730Z,49.30
2018-12-07T03:37:12.637Z,49.87
2018-12-07T03:38:12.553Z,49.87
2018-12-07T03:39:12.494Z,49.68
2018-12-07T03:40:12.449Z,49.68
2018-12-07T03:41:12.251Z,49.58
2018-12-07T03:42:12.151Z,49.77
2018-12-07T03:43:12.077Z,50.25
2018-12-07T03:44:11.962Z,51.10
2018-12-07T03:45:11.863Z,51.39
2018-12-07T03:46:11.767Z,51.68
2018-12-07T03:47:11.783Z,51.58
2018-12-07T03:48:11.593Z,52.34
2018-12-07T03:49:11.483Z,52.34
2018-12-07T03:50:11.384Z,52.25
2018-12-07T03:51:11.282Z,53.20
2018-12-07T03:52:11.185Z,53.11
2018-12-07T03:53:11.107Z,53.01
2018-12-07T03:54:11.108Z,53.30
2018-12-07T03:55:10.898Z,53.30
2018-12-07T03:56:10.802Z,53.20
2018-12-07T03:57:10.706Z,53.01
2018-12-07T03:58:10.612Z,52.53
2018-12-07T03:59:10.530Z,52.63
2018-12-07T04:00:10.414Z,52.34
2018-12-07T04:01:10.432Z,52.34
2018-12-07T04:02:10.220Z,52.25
2018-12-07T04:03:10.123Z,52.34
2018-12-07T04:04:10.042Z,52.15
2018-12-07T04:05:09.933Z,51.87
2018-12-07T04:06:09.835Z,51.78
2018-12-07T04:07:09.861Z,51.97
2018-12-07T04:08:09.644Z,52.25
2018-12-07T04:09:09.561Z,51.30
2018-12-07T04:10:09.450Z,51.30
2018-12-07T04:11:09.353Z,51.20
2018-12-07T04:12:09.254Z,51.49
2018-12-07T04:13:09.158Z,51.68
2018-12-07T04:14:09.082Z,51.20
2018-12-07T04:15:08.978Z,51.49
2018-12-07T04:16:08.866Z,51.68
2018-12-07T04:17:08.771Z,51.10
2018-12-07T04:18:08.679Z,51.30
2018-12-07T04:19:08.595Z,51.20
2018-12-07T04:20:08.485Z,51.49
2018-12-07T04:21:08.383Z,51.68
2018-12-07T04:22:08.289Z,51.68
2018-12-07T04:23:08.191Z,51.49
2018-12-07T04:24:08.128Z,51.10
2018-12-07T04:25:07.998Z,50.63
2018-12-07T04:26:07.901Z,51.10
2018-12-07T04:27:07.810Z,51.30
2018-12-07T04:28:07.710Z,51.10
2018-12-07T04:29:07.626Z,51.20
2018-12-07T04:30:07.515Z,51.01
2018-12-07T04:31:07.419Z,50.73
2018-12-07T04:32:07.321Z,50.73
2018-12-07T04:33:07.224Z,50.82
2018-12-07T04:34:07.144Z,50.63
2018-12-07T04:35:07.034Z,50.54
2018-12-07T04:36:07.540Z,50.73
2018-12-07T04:37:06.839Z,50.63
2018-12-07T04:38:06.743Z,50.63
2018-12-07T04:39:06.665Z,50.82
2018-12-07T04:40:06.547Z,50.54
2018-12-07T04:41:06.450Z,50.54
2018-12-07T04:42:06.355Z,50.63
2018-12-07T04:43:06.258Z,50.35
2018-12-07T04:44:06.181Z,50.63
2018-12-07T04:45:06.063Z,50.25
2018-12-07T04:46:05.968Z,50.35
2018-12-07T04:47:05.871Z,50.35
2018-12-07T04:48:05.772Z,50.15
2018-12-07T04:49:05.704Z,50.25
2018-12-07T04:50:05.580Z,50.06
2018-12-07T04:51:05.483Z,50.25
2018-12-07T04:52:05.388Z,50.44
2018-12-07T04:53:05.305Z,49.77
2018-12-07T04:54:05.213Z,50.25
2018-12-07T04:55:05.099Z,49.96
2018-12-07T04:56:05.009Z,49.96
2018-12-07T04:57:05.167Z,49.77
2018-12-07T04:58:04.808Z,50.06
2018-12-07T04:59:04.735Z,50.35
2018-12-07T05:00:04.615Z,50.54
2018-12-07T05:01:04.519Z,50.06
2018-12-07T05:02:04.423Z,49.68
2018-12-07T05:03:04.328Z,50.06
2018-12-07T05:04:04.344Z,49.87
2018-12-07T05:05:04.131Z,49.96
2018-12-07T05:06:04.034Z,49.77
2018-12-07T05:07:03.939Z,49.96
2018-12-07T05:08:03.841Z,50.06
2018-12-07T05:09:03.759Z,49.77
2018-12-07T05:10:03.649Z,49.96
2018-12-07T05:11:03.555Z,49.77
2018-12-07T05:12:03.461Z,49.87
2018-12-07T05:13:03.356Z,49.96
2018-12-07T05:14:03.277Z,50.25
2018-12-07T05:15:03.169Z,49.87
2018-12-07T05:16:03.067Z,50.35
2018-12-07T05:17:02.971Z,50.35
2018-12-07T05:18:02.874Z,50.15
2018-12-07T05:19:02.795Z,50.25
2018-12-07T05:20:02.681Z,50.63
2018-12-07T05:21:02.585Z,51.01
2018-12-07T05:22:02.490Z,51.10
2018-12-07T05:23:02.395Z,50.92
2018-12-07T05:24:02.315Z,51.20
2018-12-07T05:25:02.201Z,51.58
2018-12-07T05:26:02.103Z,51.39
2018-12-07T05:27:02.008Z,52.15
2018-12-07T05:28:01.909Z,52.06
2018-12-07T05:29:01.830Z,52.44
2018-12-07T05:30:01.717Z,52.25
2018-12-07T05:31:01.740Z,52.15
2018-12-07T05:32:01.523Z,52.34
2018-12-07T05:33:01.441Z,52.34
2018-12-07T05:34:01.347Z,53.01
2018-12-07T05:35:01.233Z,52.92
2018-12-07T05:36:01.138Z,53.01
2018-12-07T05:37:01.040Z,53.49
2018-12-07T05:38:00.944Z,53.87
2018-12-07T05:39:00.864Z,53.87
2018-12-07T05:40:00.807Z,53.39
2018-12-07T05:41:00.657Z,53.49
2018-12-07T05:42:00.555Z,53.67
2018-12-07T05:43:00.463Z,53.58
2018-12-07T05:44:00.367Z,53.67
2018-12-07T05:45:00.284Z,53.39
2018-12-07T05:46:00.176Z,53.49
2018-12-07T05:47:00.126Z,53.39
2018-12-07T05:47:59.981Z,53.49
2018-12-07T05:48:59.886Z,53.77
2018-12-07T05:49:59.801Z,53.67
2018-12-07T05:50:59.687Z,53.67
2018-12-07T05:51:59.590Z,53.87
2018-12-07T05:52:59.495Z,53.67
2018-12-07T05:53:59.400Z,53.67
2018-12-07T05:54:59.319Z,53.96
2018-12-07T05:55:59.206Z,53.30
2018-12-07T05:56:59.112Z,53.30
2018-12-07T05:57:59.012Z,53.11
2018-12-07T05:58:58.920Z,53.11
2018-12-07T05:59:58.943Z,52.92
2018-12-07T06:00:58.722Z,53.39
2018-12-07T06:01:58.627Z,53.20
2018-12-07T06:02:58.531Z,52.72
2018-12-07T06:03:58.441Z,53.30
2018-12-07T06:04:58.356Z,52.92
2018-12-07T06:05:58.245Z,53.20
2018-12-07T06:06:58.147Z,53.49
2018-12-07T06:07:58.048Z,53.96
2018-12-07T06:08:57.951Z,54.35
2018-12-07T06:09:57.873Z,54.25
2018-12-07T06:10:57.757Z,54.06
2018-12-07T06:11:57.662Z,53.77
2018-12-07T06:12:57.563Z,53.77
2018-12-07T06:13:57.577Z,54.15
2018-12-07T06:14:57.389Z,54.25
2018-12-07T06:15:57.276Z,54.35
2018-12-07T06:16:57.180Z,53.77
2018-12-07T06:17:57.084Z,53.77
2018-12-07T06:18:56.987Z,54.15
2018-12-07T06:19:56.905Z,53.96
2018-12-07T06:20:56.898Z,53.77
2018-12-07T06:21:56.696Z,54.06
2018-12-07T06:22:56.606Z,54.15
2018-12-07T06:23:56.504Z,53.96
2018-12-07T06:24:56.425Z,55.10
2018-12-07T06:25:56.311Z,54.63
2018-12-07T06:26:56.213Z,54.53
2018-12-07T06:27:56.221Z,54.44
2018-12-07T06:28:56.023Z,54.53
2018-12-07T06:29:55.951Z,54.91
2018-12-07T06:30:55.829Z,55.58
2018-12-07T06:31:55.750Z,55.20
2018-12-07T06:32:56.514Z,55.01
2018-12-07T06:33:55.541Z,55.58
2018-12-07T06:34:55.564Z,55.39
2018-12-07T06:35:55.347Z,55.96
2018-12-07T06:36:55.252Z,55.77
2018-12-07T06:37:55.153Z,55.77
2018-12-07T06:38:55.056Z,55.58
2018-12-07T06:39:54.979Z,55.77
2018-12-07T06:40:54.864Z,55.29
2018-12-07T06:41:54.891Z,55.29
2018-12-07T06:42:54.670Z,55.68
2018-12-07T06:43:54.576Z,55.20
2018-12-07T06:44:54.494Z,54.91
2018-12-07T06:45:54.381Z,55.39
2018-12-07T06:46:54.284Z,55.10
2018-12-07T06:47:54.187Z,55.29
2018-12-07T06:48:54.198Z,55.20
2018-12-07T06:49:54.013Z,55.20
2018-12-07T06:50:53.899Z,55.29
2018-12-07T06:51:53.802Z,54.91
2018-12-07T06:52:53.707Z,54.63
2018-12-07T06:53:53.610Z,54.91
2018-12-07T06:54:53.531Z,54.63
2018-12-07T06:55:53.417Z,53.96
2018-12-07T06:56:53.321Z,54.53
2018-12-07T06:57:53.223Z,53.96
2018-12-07T06:58:53.131Z,54.44
2018-12-07T06:59:53.047Z,54.35
2018-12-07T07:00:52.944Z,54.15
2018-12-07T07:01:52.839Z,53.96
2018-12-07T07:02:52.846Z,54.06
2018-12-07T07:03:52.643Z,54.15
2018-12-07T07:04:52.575Z,54.06
2018-12-07T07:05:52.454Z,54.25
2018-12-07T07:06:52.357Z,54.06
2018-12-07T07:07:52.273Z,54.06
2018-12-07T07:08:52.289Z,54.35
2018-12-07T07:09:52.085Z,53.77
2018-12-07T07:10:51.970Z,53.67
2018-12-07T07:11:51.873Z,53.77
2018-12-07T07:12:51.777Z,53.87
2018-12-07T07:13:51.681Z,53.77
2018-12-07T07:14:51.601Z,53.39
2018-12-07T07:15:51.489Z,53.77
2018-12-07T07:16:51.392Z,53.77
2018-12-07T07:17:51.296Z,53.49
2018-12-07T07:18:51.199Z,53.77
2018-12-07T07:19:51.121Z,53.87
2018-12-07T07:20:51.005Z,53.77
2018-12-07T07:21:50.909Z,53.96
2018-12-07T07:22:50.814Z,53.77
2018-12-07T07:23:50.717Z,53.77
2018-12-07T07:24:50.638Z,53.67
2018-12-07T07:25:50.526Z,53.77
2018-12-07T07:26:50.427Z,53.87
2018-12-07T07:27:50.332Z,54.35
2018-12-07T07:28:50.236Z,54.15
2018-12-07T07:29:50.156Z,53.77
2018-12-07T07:30:50.044Z,54.06
2018-12-07T07:31:49.947Z,54.44
2018-12-07T07:32:49.849Z,54.35
2018-12-07T07:33:49.753Z,54.25
2018-12-07T07:34:49.661Z,54.72
2018-12-07T07:35:49.577Z,56.15
2018-12-07T07:36:49.464Z,57.48
2018-12-07T07:37:49.368Z,57.04
2018-12-07T07:38:49.275Z,56.92
2018-12-07T07:39:49.184Z,57.29
2018-12-07T07:40:49.096Z,57.67
2018-12-07T07:41:48.982Z,58.06
2018-12-07T07:42:48.887Z,58.06
2018-12-07T07:43:48.790Z,58.06
2018-12-07T07:44:48.699Z,58.15
2018-12-07T07:45:48.616Z,58.25
2018-12-07T07:46:48.501Z,58.06
2018-12-07T07:47:48.403Z,57.96
2018-12-07T07:48:48.311Z,58.34
2018-12-07T07:49:48.212Z,58.34
2018-12-07T07:50:48.137Z,58.15
2018-12-07T07:51:48.022Z,58.06
2018-12-07T07:52:47.923Z,57.77
2018-12-07T07:53:47.829Z,58.81
2018-12-07T07:54:47.732Z,58.91
2018-12-07T07:55:47.647Z,59.10
2018-12-07T07:56:47.536Z,59.86
2018-12-07T07:57:47.441Z,59.39
2018-12-07T07:58:47.359Z,59.10
2018-12-07T07:59:47.249Z,59.70
2018-12-07T08:00:47.167Z,59.61
2018-12-07T08:01:47.057Z,59.77
2018-12-07T08:02:46.958Z,60.24
2018-12-07T08:03:46.865Z,60.63
2018-12-07T08:04:46.765Z,60.37
2018-12-07T08:05:46.689Z,61.04
2018-12-07T08:06:46.574Z,60.66
2018-12-07T08:07:46.477Z,61.04
2018-12-07T08:08:46.380Z,61.51
2018-12-07T08:09:46.284Z,61.61
2018-12-07T08:10:46.205Z,62.46
2018-12-07T08:11:46.091Z,63.32
2018-12-07T08:12:45.995Z,63.42
2018-12-07T08:13:45.898Z,63.42
2018-12-07T08:14:45.802Z,63.70
2018-12-07T08:15:45.722Z,63.99
2018-12-07T08:16:45.611Z,63.80
2018-12-07T08:17:45.513Z,64.65
2018-12-07T08:18:45.526Z,64.28
2018-12-07T08:19:45.335Z,64.28
2018-12-07T08:20:45.243Z,64.65
2018-12-07T08:21:45.131Z,64.28
2018-12-07T08:22:45.036Z,64.18
2018-12-07T08:23:44.941Z,64.18
2018-12-07T08:24:44.839Z,65.23
2018-12-07T08:25:44.865Z,65.13
2018-12-07T08:26:44.648Z,65.32
2018-12-07T08:27:44.549Z,65.89
2018-12-07T08:28:44.457Z,66.37
2018-12-07T08:29:44.372Z,66.56
2018-12-07T08:30:44.282Z,66.94
2018-12-07T08:31:44.168Z,67.80
2018-12-07T08:32:44.173Z,67.99
2018-12-07T08:33:43.973Z,67.89
2018-12-07T08:34:43.880Z,68.37
2018-12-07T08:35:43.800Z,69.13
2018-12-07T08:36:43.685Z,70.27
2018-12-07T08:37:43.590Z,71.13
2018-12-07T08:38:43.493Z,72.17
2018-12-07T08:39:43.514Z,72.85
2018-12-07T08:40:43.318Z,73.41
2018-12-07T08:41:43.204Z,73.41
2018-12-07T08:42:43.109Z,74.84
2018-12-07T08:43:43.011Z,74.94
2018-12-07T08:44:42.915Z,75.23
2018-12-07T08:45:42.837Z,75.42
2018-12-07T08:46:42.842Z,75.89
2018-12-07T08:47:42.627Z,75.70
2018-12-07T08:48:42.532Z,76.37
2018-12-07T08:49:42.435Z,76.27
2018-12-07T08:50:42.353Z,76.08
2018-12-07T08:51:42.245Z,76.46
2018-12-07T08:52:42.141Z,76.46
2018-12-07T08:53:42.151Z,76.65
2018-12-07T08:54:41.955Z,76.65
2018-12-07T08:55:41.876Z,76.37
2018-12-07T08:56:41.768Z,76.18
2018-12-07T08:57:41.668Z,76.56
2018-12-07T08:58:41.581Z,76.65
2018-12-07T08:59:41.469Z,76.65
2018-12-07T09:00:41.498Z,76.46
2018-12-07T09:01:41.279Z,76.65
2018-12-07T09:02:41.193Z,76.75
2018-12-07T09:03:41.089Z,76.56
2018-12-07T09:04:40.993Z,76.46
2018-12-07T09:05:40.912Z,76.75
2018-12-07T09:06:40.850Z,76.46
2018-12-07T09:07:40.804Z,76.65
2018-12-07T09:08:40.609Z,76.37
2018-12-07T09:09:40.511Z,76.46
2018-12-07T09:10:40.416Z,76.37
2018-12-07T09:11:40.335Z,76.84
2018-12-07T09:12:40.224Z,76.37
2018-12-07T09:13:40.128Z,76.65
2018-12-07T09:14:40.139Z,76.46
2018-12-07T09:15:39.951Z,76.84
2018-12-07T09:16:39.837Z,76.75
2018-12-07T09:17:39.739Z,76.65
2018-12-07T09:18:39.647Z,76.94
2018-12-07T09:19:39.549Z,76.65
2018-12-07T09:20:39.460Z,76.75
2018-12-07T09:21:39.482Z,76.65
2018-12-07T09:22:39.263Z,76.46
2018-12-07T09:23:39.167Z,77.32
2018-12-07T09:24:39.146Z,76.46
2018-12-07T09:25:38.977Z,76.18
2018-12-07T09:26:38.895Z,76.94
2018-12-07T09:27:38.781Z,76.56
2018-12-07T09:28:38.820Z,76.65
2018-12-07T09:29:38.593Z,76.94
2018-12-07T09:30:38.500Z,76.46
2018-12-07T09:31:38.413Z,76.75
2018-12-07T09:32:38.302Z,76.65
2018-12-07T09:33:38.206Z,76.65
2018-12-07T09:34:38.113Z,77.03
2018-12-07T09:35:38.123Z,76.37
2018-12-07T09:36:37.933Z,76.65
2018-12-07T09:37:37.822Z,76.65
2018-12-07T09:38:37.750Z,76.46
2018-12-07T09:39:37.628Z,76.37
2018-12-07T09:40:37.535Z,76.46
2018-12-07T09:41:37.559Z,76.46
2018-12-07T09:42:37.340Z,76.46
2018-12-07T09:43:37.245Z,76.46
2018-12-07T09:44:37.147Z,76.75
2018-12-07T09:45:37.052Z,77.42
2018-12-07T09:46:36.975Z,77.03
2018-12-07T09:47:36.860Z,76.46
2018-12-07T09:48:36.762Z,76.56
2018-12-07T09:49:36.668Z,76.65
2018-12-07T09:50:36.574Z,76.65
2018-12-07T09:51:36.491Z,76.65
2018-12-07T09:52:36.376Z,77.22
2018-12-07T09:53:36.281Z,77.13
2018-12-07T09:54:36.188Z,76.46
2018-12-07T09:55:36.089Z,76.65
2018-12-07T09:56:36.011Z,76.65
2018-12-07T09:57:35.907Z,76.94
2018-12-07T09:58:35.802Z,76.94
2018-12-07T09:59:35.716Z,76.75
2018-12-07T10:00:35.609Z,77.03
2018-12-07T10:01:35.531Z,77.13
2018-12-07T10:02:35.419Z,77.13
2018-12-07T10:03:35.323Z,77.22
2018-12-07T10:04:35.225Z,76.84
2018-12-07T10:05:35.130Z,77.13
2018-12-07T10:06:35.052Z,77.03
2018-12-07T10:07:34.939Z,77.03
2018-12-07T10:08:34.843Z,77.42
2018-12-07T10:09:34.747Z,77.03
2018-12-07T10:10:34.656Z,77.03
2018-12-07T10:11:34.571Z,77.32
2018-12-07T10:12:34.460Z,77.32
2018-12-07T10:13:34.366Z,77.22
2018-12-07T10:14:34.266Z,77.03
2018-12-07T10:15:34.171Z,77.22
2018-12-07T10:16:34.090Z,77.70
2018-12-07T10:17:33.982Z,77.03
2018-12-07T10:18:33.881Z,77.80
2018-12-07T10:19:33.785Z,77.61
2018-12-07T10:20:33.767Z,77.70
2018-12-07T10:21:33.609Z,77.89
2018-12-07T10:22:33.498Z,77.42
2018-12-07T10:23:33.398Z,77.80
2018-12-07T10:24:33.303Z,77.56
2018-12-07T10:25:33.209Z,77.42
2018-12-07T10:26:33.127Z,77.42
2018-12-07T10:27:33.016Z,78.08
2018-12-07T10:28:32.916Z,77.61
2018-12-07T10:29:32.822Z,77.03
2018-12-07T10:30:32.726Z,78.23
2018-12-07T10:31:32.645Z,77.70
2018-12-07T10:32:32.534Z,77.70
2018-12-07T10:33:32.438Z,78.08
2018-12-07T10:34:32.341Z,78.23
2018-12-07T10:35:32.243Z,78.14
2018-12-07T10:36:32.165Z,78.14
2018-12-07T10:37:32.067Z,77.85
2018-12-07T10:38:31.956Z,77.85
2018-12-07T10:39:31.858Z,78.04
2018-12-07T10:40:31.762Z,78.04
2018-12-07T10:41:31.686Z,78.04
2018-12-07T10:42:31.571Z,77.76
2018-12-07T10:43:31.473Z,77.76
2018-12-07T10:44:31.381Z,78.17
2018-12-07T10:45:31.281Z,78.04
2018-12-07T10:46:31.206Z,78.46
2018-12-07T10:47:31.087Z,78.46
2018-12-07T10:48:30.991Z,78.17
2018-12-07T10:49:30.895Z,78.04
2018-12-07T10:50:30.800Z,78.23
2018-12-07T10:51:30.718Z,78.23
2018-12-07T10:52:30.675Z,78.14
2018-12-07T10:53:30.509Z,77.76
2018-12-07T10:54:30.414Z,78.14
2018-12-07T10:55:30.318Z,77.95
2018-12-07T10:56:30.236Z,77.98
2018-12-07T10:57:30.125Z,77.98
2018-12-07T10:58:30.035Z,77.76
2018-12-07T10:59:29.930Z,78.23
2018-12-07T11:00:29.834Z,78.04
2018-12-07T11:01:29.756Z,77.95
2018-12-07T11:02:29.647Z,78.14
2018-12-07T11:03:29.545Z,78.14
2018-12-07T11:04:29.448Z,78.14
2018-12-07T11:05:29.353Z,78.17
2018-12-07T11:06:29.268Z,77.95
2018-12-07T11:07:29.175Z,78.42
2018-12-07T11:08:29.063Z,78.61
2018-12-07T11:09:28.967Z,78.33
2018-12-07T11:10:28.872Z,78.90
2018-12-07T11:11:28.777Z,78.90
2018-12-07T11:12:28.700Z,78.80
2018-12-07T11:13:28.683Z,78.61
2018-12-07T11:14:28.486Z,78.90
2018-12-07T11:15:28.388Z,78.61
2018-12-07T11:16:28.294Z,78.99
2018-12-07T11:17:28.230Z,78.33
2018-12-07T11:18:28.100Z,78.33
2018-12-07T11:19:28.002Z,78.33
2018-12-07T11:20:28.009Z,78.23
2018-12-07T11:21:27.812Z,78.90
2018-12-07T11:22:27.732Z,78.42
2018-12-07T11:23:27.619Z,78.71
2018-12-07T11:24:27.521Z,78.33
2018-12-07T11:25:27.429Z,78.61
2018-12-07T11:26:27.328Z,78.71
2018-12-07T11:27:27.340Z,78.42
2018-12-07T11:28:27.135Z,78.99
2018-12-07T11:29:27.038Z,78.71
2018-12-07T11:30:26.942Z,78.33
2018-12-07T11:31:26.889Z,78.61
2018-12-07T11:32:26.764Z,77.76
2018-12-07T11:33:26.784Z,77.85
2018-12-07T11:34:26.556Z,77.95
2018-12-07T11:35:26.459Z,77.95
2018-12-07T11:36:26.362Z,77.85
2018-12-07T11:37:26.286Z,78.04
2018-12-07T11:38:26.172Z,78.14
2018-12-07T11:39:26.072Z,78.33
2018-12-07T11:40:26.084Z,78.23
2018-12-07T11:41:25.877Z,78.23
2018-12-07T11:42:25.798Z,78.04
2018-12-07T11:43:25.686Z,77.95
2018-12-07T11:44:25.591Z,78.14
2018-12-07T11:45:25.489Z,78.14
2018-12-07T11:46:25.396Z,78.23
2018-12-07T11:47:25.317Z,77.95
2018-12-07T11:48:25.200Z,78.23
2018-12-07T11:49:25.105Z,78.23
2018-12-07T11:50:25.011Z,78.23
2018-12-07T11:51:24.910Z,78.42
2018-12-07T11:52:24.831Z,77.95
2018-12-07T11:53:24.719Z,78.04
2018-12-07T11:54:24.622Z,78.14
2018-12-07T11:55:24.527Z,78.14
2018-12-07T11:56:24.428Z,77.95
2018-12-07T11:57:24.350Z,78.23
2018-12-07T11:58:24.235Z,78.04
2018-12-07T11:59:24.140Z,78.23
2018-12-07T12:00:24.054Z,77.85
2018-12-07T12:01:23.946Z,78.52
2018-12-07T12:02:26.470Z,78.42
2018-12-07T12:03:23.751Z,78.99
2018-12-07T12:04:23.659Z,78.71
2018-12-07T12:05:23.557Z,78.52
2018-12-07T12:06:23.469Z,78.61
2018-12-07T12:07:23.486Z,78.23
2018-12-07T12:08:23.267Z,78.42
2018-12-07T12:09:23.171Z,78.71
2018-12-07T12:10:23.074Z,78.52
2018-12-07T12:11:22.978Z,78.33
2018-12-07T12:12:22.899Z,78.52
2018-12-07T12:13:22.790Z,78.33
2018-12-07T12:14:22.791Z,78.61
2018-12-07T12:15:22.592Z,78.52
2018-12-07T12:16:22.494Z,78.61
2018-12-07T12:17:22.412Z,78.04
2018-12-07T12:18:22.305Z,77.95
2018-12-07T12:19:22.203Z,77.76
2018-12-07T12:20:22.107Z,78.04
2018-12-07T12:21:22.114Z,77.76
2018-12-07T12:22:21.931Z,78.42
2018-12-07T12:23:21.818Z,78.52
2018-12-07T12:24:21.724Z,77.95
2018-12-07T12:25:21.624Z,77.95
2018-12-07T12:26:21.526Z,78.04
2018-12-07T12:27:21.446Z,78.14
2018-12-07T12:28:21.439Z,78.14
2018-12-07T12:29:21.236Z,77.85
2018-12-07T12:30:21.140Z,78.23
2018-12-07T12:31:21.043Z,78.23
2018-12-07T12:32:20.965Z,78.23
2018-12-07T12:33:20.850Z,78.14
2018-12-07T12:34:20.753Z,77.85
2018-12-07T12:35:21.562Z,77.95
2018-12-07T12:36:20.559Z,77.95
2018-12-07T12:37:20.479Z,78.14
2018-12-07T12:38:20.367Z,78.14
2018-12-07T12:39:20.270Z,77.85
2018-12-07T12:40:20.176Z,78.23
2018-12-07T12:41:20.081Z,78.23
2018-12-07T12:42:20.100Z,77.85
2018-12-07T12:43:19.881Z,78.04
2018-12-07T12:44:19.784Z,77.95
2018-12-07T12:45:19.686Z,78.14
2018-12-07T12:46:19.592Z,78.14
2018-12-07T12:47:19.511Z,78.04
2018-12-07T12:48:19.401Z,78.23
2018-12-07T12:49:19.421Z,78.04
2018-12-07T12:50:19.208Z,78.23
2018-12-07T12:51:19.109Z,77.95